TimePST,TemperatureF,Dew PointF,Humidity,Sea Level PressureIn,VisibilityMPH,Wind Direction,Wind SpeedMPH,Gust SpeedMPH,PrecipitationIn,Events,Conditions,WindDirDegrees,DateUTC
12:53 AM,42.1,39.9,92,30.19,10.0,SE,3.5,-,N/A,,Clear,130,2012-12-25 08:53:00
1:53 AM,39.9,39.0,97,30.17,10.0,Calm,Calm,-,N/A,,Clear,0,2012-12-25 09:53:00
2:53 AM,44.1,39.0,82,30.17,10.0,ESE,10.4,-,N/A,,Clear,120,2012-12-25 10:53:00
3:53 AM,44.1,39.9,85,30.13,10.0,East,11.5,-,N/A,,Clear,100,2012-12-25 11:53:00
4:53 AM,44.1,39.9,85,30.10,10.0,ESE,16.1,-,N/A,,Clear,110,2012-12-25 12:53:00
5:53 AM,43.0,39.9,89,30.09,10.0,East,15.0,-,N/A,,Clear,100,2012-12-25 13:53:00
6:53 AM,43.0,39.9,89,30.12,10.0,East,10.4,-,N/A,,Clear,90,2012-12-25 14:53:00
7:53 AM,45.0,41.0,86,30.15,10.0,East,8.1,-,N/A,,Mostly Cloudy,80,2012-12-25 15:53:00
8:53 AM,46.0,41.0,83,30.16,10.0,East,8.1,-,0.00,,Mostly Cloudy,100,2012-12-25 16:53:00
9:53 AM,46.9,42.1,83,30.16,10.0,East,6.9,-,N/A,,Partly Cloudy,100,2012-12-25 17:53:00
10:53 AM,48.9,42.1,77,30.15,10.0,ESE,11.5,-,N/A,,Mostly Cloudy,110,2012-12-25 18:53:00
11:53 AM,48.0,43.0,83,30.10,10.0,East,11.5,-,0.00,Rain,Light Rain,90,2012-12-25 19:53:00
12:53 PM,48.9,44.1,83,30.07,8.0,East,15.0,-,0.00,Rain,Light Rain,100,2012-12-25 20:53:00
1:53 PM,50.0,44.1,80,29.97,10.0,ESE,25.3,32.2,0.02,,Partly Cloudy,120,2012-12-25 21:53:00
2:53 PM,51.1,42.1,71,29.98,10.0,ESE,18.4,31.1,0.00,,Overcast,120,2012-12-25 22:53:00
3:53 PM,52.0,44.1,74,29.94,10.0,ESE,18.4,-,N/A,,Mostly Cloudy,120,2012-12-25 23:53:00
4:53 PM,51.1,44.1,77,29.90,10.0,ESE,18.4,-,N/A,,Overcast,110,2012-12-26 00:53:00
5:53 PM,50.0,46.0,86,29.94,5.0,NNW,6.9,-,0.09,Rain,Rain,340,2012-12-26 01:53:00
6:53 PM,48.9,46.0,90,29.89,8.0,ESE,4.6,-,0.12,Rain,Light Rain,110,2012-12-26 02:53:00
7:53 PM,48.9,45.0,86,29.90,10.0,ESE,23.0,-,0.03,Rain,Light Rain,120,2012-12-26 03:53:00
8:53 PM,48.0,42.1,80,29.89,10.0,ESE,23.0,34.5,0.01,Rain,Light Rain,110,2012-12-26 04:53:00
9:53 PM,46.9,44.1,90,29.92,8.0,ESE,15.0,23.0,0.02,Rain,Light Rain,120,2012-12-26 05:53:00
10:15 PM,46.4,44.6,93,29.90,7.0,ESE,18.4,-,0.02,Rain,Light Rain,120,2012-12-26 06:15:00
10:53 PM,46.9,44.1,90,29.93,10.0,ESE,10.4,-,0.03,Rain,Light Rain,110,2012-12-26 06:53:00
11:53 PM,46.9,44.1,90,29.95,10.0,East,6.9,-,0.06,Rain,Light Rain,100,2012-12-26 07:53:00